Airfield :
LOGIN :

Register | Disclaimer

   EN    FR    IT 

 










Legend :    VFR   Marginal VFR   IFR   Intensive IFR   Very Intensive IFR
Visi :
Ceiling :
>= 8 km
>= 3000ft
5 to 8 km
1000 to 3000 ft
1500m to 5 km
500 to 1000 ft
800 to 1500m
200 to 500 ft
< 800m
< 200 ft
Symbols :   Thunderstorms  Fog  Heavy snow  Heavy precipitations  Wind > 20 kt
SIGMETs :     Misc.  Thunderstorms  Icing  Turbulence  Mountain Waves  Volcanic Ashes







- Airport Elevation : 637 ft
- IATA code : MVQ


UMOO - Mogilev

METAR N/A
TAF TAF UMOO
Valid from the 17 at 12:00 until the 17 at 21:00 UTC


171100Z 1712/1721 24005MPS 3000 BR BKN005 TX01/1712Z TNM03/1721Z
TEMPO 1712/1715 20006MPS 1300 SHSN BCFG OVC003 BKN012CB
TEMPO 1715/1721 26005G10MPS 0700 +SHSN BR OVC002 BKN010CB
No reported NOTAMs for that airfield.
1 SIGMET reported for the Minsk FIR (UMMV) :
 
UMMV SIGMET 3 VALID 171600/172000 UMMS
UMMV MINSK FIR SEV ICE(FZRA) FCST E OF E023 BLW FL100 MOV NE 20KMH NC=



MET'MAP, your aeronautical weather chart ! - Copyright ORBIFLY December 2007 - Disclaimer

ORBIFLY MET'MAP TEAM :

Programming & Development : Alexandra Zaïnal
Concept & Development : Baudouin d'Aumeries
Co-Development & Prog : Marc-Olivier Méhu
Technical & hardware support : Manuel Goepfert

Contact : metmap@orbifly.com




SOURCES & CREDITS :

   NOAA